sensor_id;sensor_type;location;lat;lon;timestamp;pressure;altitude;pressure_sealevel;temperature;humidity
15932;BME280;8065;49.520;11.284;2023-03-25T00:01:01;96773.50;;;13.30;81.85
15932;BME280;8065;49.520;11.284;2023-03-25T00:03:32;96772.03;;;13.32;81.08
15932;BME280;8065;49.520;11.284;2023-03-25T00:06:00;96774.28;;;13.30;81.51
15932;BME280;8065;49.520;11.284;2023-03-25T00:08:27;96766.63;;;13.29;81.67
15932;BME280;8065;49.520;11.284;2023-03-25T00:10:55;96757.91;;;13.32;81.33
15932;BME280;8065;49.520;11.284;2023-03-25T00:13:22;96765.28;;;13.19;81.47
15932;BME280;8065;49.520;11.284;2023-03-25T00:15:49;96760.38;;;13.21;82.00
15932;BME280;8065;49.520;11.284;2023-03-25T00:18:18;96751.97;;;13.19;82.65
15932;BME280;8065;49.520;11.284;2023-03-25T00:20:45;96750.00;;;13.16;81.72
15932;BME280;8065;49.520;11.284;2023-03-25T00:23:15;96758.06;;;13.20;82.13
15932;BME280;8065;49.520;11.284;2023-03-25T00:25:41;96761.69;;;13.11;82.36
15932;BME280;8065;49.520;11.284;2023-03-25T00:28:09;96751.38;;;13.10;82.45
15932;BME280;8065;49.520;11.284;2023-03-25T00:30:36;96746.38;;;13.08;82.53
15932;BME280;8065;49.520;11.284;2023-03-25T00:33:03;96744.06;;;13.07;83.00
15932;BME280;8065;49.520;11.284;2023-03-25T00:35:29;96753.19;;;13.06;83.34
15932;BME280;8065;49.520;11.284;2023-03-25T00:37:57;96745.63;;;13.08;83.30
15932;BME280;8065;49.520;11.284;2023-03-25T00:40:28;96737.19;;;13.06;83.47
15932;BME280;8065;49.520;11.284;2023-03-25T00:42:55;96728.75;;;13.04;83.35
15932;BME280;8065;49.520;11.284;2023-03-25T00:45:22;96737.06;;;12.99;83.90
15932;BME280;8065;49.520;11.284;2023-03-25T00:47:49;96730.91;;;12.95;84.35
15932;BME280;8065;49.520;11.284;2023-03-25T00:50:15;96717.69;;;12.83;84.36
15932;BME280;8065;49.520;11.284;2023-03-25T00:52:42;96722.25;;;12.82;84.67
15932;BME280;8065;49.520;11.284;2023-03-25T00:55:08;96722.63;;;12.80;84.70
15932;BME280;8065;49.520;11.284;2023-03-25T00:57:36;96710.69;;;12.74;84.92
15932;BME280;8065;49.520;11.284;2023-03-25T01:00:04;96709.69;;;12.63;85.33
15932;BME280;8065;49.520;11.284;2023-03-25T01:02:32;96702.41;;;12.60;85.45
15932;BME280;8065;49.520;11.284;2023-03-25T01:04:59;96704.78;;;12.65;84.93
15932;BME280;8065;49.520;11.284;2023-03-25T01:07:25;96706.59;;;12.61;85.28
15932;BME280;8065;49.520;11.284;2023-03-25T01:09:53;96714.88;;;12.56;85.16
15932;BME280;8065;49.520;11.284;2023-03-25T01:12:21;96717.38;;;12.49;85.87
15932;BME280;8065;49.520;11.284;2023-03-25T01:14:49;96717.88;;;12.55;85.61
15932;BME280;8065;49.520;11.284;2023-03-25T01:17:15;96733.50;;;12.37;86.72
15932;BME280;8065;49.520;11.284;2023-03-25T01:19:42;96720.28;;;12.25;86.43
15932;BME280;8065;49.520;11.284;2023-03-25T01:22:08;96707.97;;;12.36;85.46
15932;BME280;8065;49.520;11.284;2023-03-25T01:24:35;96689.31;;;12.36;85.12
15932;BME280;8065;49.520;11.284;2023-03-25T01:27:02;96682.13;;;12.21;85.29
15932;BME280;8065;49.520;11.284;2023-03-25T01:29:29;96711.50;;;12.05;85.79
15932;BME280;8065;49.520;11.284;2023-03-25T01:31:56;96696.50;;;12.16;85.83
15932;BME280;8065;49.520;11.284;2023-03-25T01:34:23;96706.88;;;12.21;85.21
15932;BME280;8065;49.520;11.284;2023-03-25T01:36:50;96705.25;;;12.17;85.27
15932;BME280;8065;49.520;11.284;2023-03-25T01:39:19;96709.28;;;12.26;84.69
15932;BME280;8065;49.520;11.284;2023-03-25T01:41:48;96707.16;;;12.16;84.85
15932;BME280;8065;49.520;11.284;2023-03-25T01:47:23;96713.81;;;12.06;84.26
15932;BME280;8065;49.520;11.284;2023-03-25T01:49:51;96722.91;;;12.05;84.41
15932;BME280;8065;49.520;11.284;2023-03-25T01:52:21;96706.38;;;12.15;84.41
15932;BME280;8065;49.520;11.284;2023-03-25T01:54:50;96708.75;;;12.01;84.96
15932;BME280;8065;49.520;11.284;2023-03-25T01:57:19;96714.38;;;12.15;84.33
15932;BME280;8065;49.520;11.284;2023-03-25T01:59:47;96702.59;;;12.17;83.91
15932;BME280;8065;49.520;11.284;2023-03-25T02:02:15;96696.84;;;12.14;83.94
15932;BME280;8065;49.520;11.284;2023-03-25T02:04:49;96701.78;;;12.12;84.25
15932;BME280;8065;49.520;11.284;2023-03-25T02:07:23;96692.22;;;12.11;83.89
15932;BME280;8065;49.520;11.284;2023-03-25T02:09:56;96691.38;;;12.07;83.92
15932;BME280;8065;49.520;11.284;2023-03-25T02:12:23;96700.22;;;12.11;83.68
15932;BME280;8065;49.520;11.284;2023-03-25T02:14:50;96685.63;;;12.05;83.65
15932;BME280;8065;49.520;11.284;2023-03-25T02:17:21;96687.53;;;12.05;83.59
15932;BME280;8065;49.520;11.284;2023-03-25T02:23:27;96686.41;;;11.90;84.00
15932;BME280;8065;49.520;11.284;2023-03-25T02:26:19;96682.53;;;12.03;83.12
15932;BME280;8065;49.520;11.284;2023-03-25T02:28:52;96683.75;;;12.06;82.77
15932;BME280;8065;49.520;11.284;2023-03-25T02:31:40;96680.03;;;12.10;82.97
15932;BME280;8065;49.520;11.284;2023-03-25T02:34:19;96682.13;;;12.01;82.97
15932;BME280;8065;49.520;11.284;2023-03-25T02:39:56;96693.03;;;11.96;82.64
15932;BME280;8065;49.520;11.284;2023-03-25T02:42:30;96695.09;;;11.87;82.06
15932;BME280;8065;49.520;11.284;2023-03-25T02:45:01;96694.66;;;12.01;82.14
15932;BME280;8065;49.520;11.284;2023-03-25T02:47:34;96698.28;;;11.93;81.65
15932;BME280;8065;49.520;11.284;2023-03-25T02:50:04;96698.88;;;12.02;81.25
15932;BME280;8065;49.520;11.284;2023-03-25T02:52:35;96686.75;;;11.89;81.36
15932;BME280;8065;49.520;11.284;2023-03-25T02:55:07;96693.56;;;11.86;81.04
15932;BME280;8065;49.520;11.284;2023-03-25T02:57:38;96698.97;;;11.90;81.15
15932;BME280;8065;49.520;11.284;2023-03-25T03:00:07;96710.63;;;11.85;80.52
15932;BME280;8065;49.520;11.284;2023-03-25T03:02:40;96699.19;;;11.69;80.72
15932;BME280;8065;49.520;11.284;2023-03-25T03:05:21;96689.59;;;11.80;80.18
15932;BME280;8065;49.520;11.284;2023-03-25T03:07:52;96685.13;;;11.84;79.52
15932;BME280;8065;49.520;11.284;2023-03-25T03:10:23;96687.97;;;11.91;79.54
15932;BME280;8065;49.520;11.284;2023-03-25T03:12:59;96705.75;;;11.87;79.24
15932;BME280;8065;49.520;11.284;2023-03-25T03:15:37;96695.78;;;11.84;79.18
15932;BME280;8065;49.520;11.284;2023-03-25T03:18:12;96694.41;;;11.90;78.92
15932;BME280;8065;49.520;11.284;2023-03-25T03:20:45;96696.47;;;11.81;78.84
15932;BME280;8065;49.520;11.284;2023-03-25T03:23:19;96702.56;;;11.81;78.40
15932;BME280;8065;49.520;11.284;2023-03-25T03:25:51;96708.41;;;11.87;77.69
15932;BME280;8065;49.520;11.284;2023-03-25T03:28:23;96691.16;;;11.81;78.58
15932;BME280;8065;49.520;11.284;2023-03-25T03:30:57;96699.47;;;11.79;78.55
15932;BME280;8065;49.520;11.284;2023-03-25T03:33:30;96702.56;;;11.81;78.39
15932;BME280;8065;49.520;11.284;2023-03-25T03:36:00;96703.13;;;11.75;78.47
15932;BME280;8065;49.520;11.284;2023-03-25T03:38:32;96699.56;;;11.83;78.20
15932;BME280;8065;49.520;11.284;2023-03-25T03:41:05;96701.59;;;11.74;78.35
15932;BME280;8065;49.520;11.284;2023-03-25T03:43:39;96702.66;;;11.85;78.14
15932;BME280;8065;49.520;11.284;2023-03-25T03:46:09;96714.47;;;11.72;78.65
15932;BME280;8065;49.520;11.284;2023-03-25T03:48:41;96710.13;;;11.79;78.79
15932;BME280;8065;49.520;11.284;2023-03-25T03:51:14;96703.00;;;11.84;78.43
15932;BME280;8065;49.520;11.284;2023-03-25T03:53:45;96704.88;;;11.83;78.60
15932;BME280;8065;49.520;11.284;2023-03-25T03:56:17;96716.41;;;11.87;78.47
15932;BME280;8065;49.520;11.284;2023-03-25T03:58:49;96714.50;;;11.88;78.51
15932;BME280;8065;49.520;11.284;2023-03-25T04:01:20;96710.91;;;11.80;79.07
15932;BME280;8065;49.520;11.284;2023-03-25T04:03:57;96704.19;;;11.86;78.74
15932;BME280;8065;49.520;11.284;2023-03-25T04:06:27;96704.28;;;11.90;78.75
15932;BME280;8065;49.520;11.284;2023-03-25T04:09:02;96707.47;;;11.95;78.59
15932;BME280;8065;49.520;11.284;2023-03-25T04:11:36;96715.97;;;11.85;78.67
15932;BME280;8065;49.520;11.284;2023-03-25T04:14:06;96704.63;;;11.88;79.00
15932;BME280;8065;49.520;11.284;2023-03-25T04:16:34;96711.06;;;11.87;79.46
15932;BME280;8065;49.520;11.284;2023-03-25T04:19:02;96709.19;;;11.88;79.36
15932;BME280;8065;49.520;11.284;2023-03-25T04:21:29;96708.59;;;11.78;79.47
15932;BME280;8065;49.520;11.284;2023-03-25T04:23:56;96703.44;;;11.86;79.58
15932;BME280;8065;49.520;11.284;2023-03-25T04:26:26;96706.88;;;11.86;79.57
15932;BME280;8065;49.520;11.284;2023-03-25T04:28:55;96715.09;;;11.81;80.43
15932;BME280;8065;49.520;11.284;2023-03-25T04:31:24;96719.09;;;11.75;81.51
15932;BME280;8065;49.520;11.284;2023-03-25T04:33:55;96722.47;;;11.72;81.91
15932;BME280;8065;49.520;11.284;2023-03-25T04:36:22;96720.56;;;11.57;82.12
15932;BME280;8065;49.520;11.284;2023-03-25T04:38:49;96741.66;;;11.49;82.16
15932;BME280;8065;49.520;11.284;2023-03-25T04:41:17;96741.06;;;11.56;82.44
15932;BME280;8065;49.520;11.284;2023-03-25T04:43:43;96740.56;;;11.50;82.89
15932;BME280;8065;49.520;11.284;2023-03-25T04:46:13;96737.47;;;11.48;82.83
15932;BME280;8065;49.520;11.284;2023-03-25T04:48:41;96761.00;;;11.19;83.04
15932;BME280;8065;49.520;11.284;2023-03-25T04:51:10;96730.66;;;11.35;82.73
15932;BME280;8065;49.520;11.284;2023-03-25T04:53:37;96738.13;;;11.45;81.96
15932;BME280;8065;49.520;11.284;2023-03-25T04:56:05;96744.72;;;11.36;82.98
15932;BME280;8065;49.520;11.284;2023-03-25T04:58:32;96741.91;;;11.44;82.65
15932;BME280;8065;49.520;11.284;2023-03-25T05:01:01;96733.59;;;11.46;83.15
15932;BME280;8065;49.520;11.284;2023-03-25T05:03:31;96736.69;;;11.48;83.00
15932;BME280;8065;49.520;11.284;2023-03-25T05:05:58;96747.03;;;11.37;83.57
15932;BME280;8065;49.520;11.284;2023-03-25T05:08:25;96751.94;;;11.35;84.40
15932;BME280;8065;49.520;11.284;2023-03-25T05:10:51;96747.91;;;11.41;83.56
15932;BME280;8065;49.520;11.284;2023-03-25T05:13:18;96743.72;;;11.40;84.04
15932;BME280;8065;49.520;11.284;2023-03-25T05:15:46;96740.59;;;11.23;81.81
15932;BME280;8065;49.520;11.284;2023-03-25T05:18:14;96748.72;;;11.14;81.42
15932;BME280;8065;49.520;11.284;2023-03-25T05:20:44;96750.31;;;11.03;79.43
15932;BME280;8065;49.520;11.284;2023-03-25T05:23:12;96756.84;;;11.05;79.62
15932;BME280;8065;49.520;11.284;2023-03-25T05:25:42;96767.25;;;11.10;78.98
15932;BME280;8065;49.520;11.284;2023-03-25T05:28:09;96770.78;;;11.14;78.28
15932;BME280;8065;49.520;11.284;2023-03-25T05:30:38;96777.53;;;11.12;78.46
15932;BME280;8065;49.520;11.284;2023-03-25T05:33:06;96778.75;;;11.14;78.59
15932;BME280;8065;49.520;11.284;2023-03-25T05:35:34;96788.28;;;11.15;77.65
15932;BME280;8065;49.520;11.284;2023-03-25T05:38:02;96779.88;;;11.29;77.95
15932;BME280;8065;49.520;11.284;2023-03-25T05:40:29;96786.06;;;11.18;77.30
15932;BME280;8065;49.520;11.284;2023-03-25T05:42:56;96784.22;;;11.06;76.96
15932;BME280;8065;49.520;11.284;2023-03-25T05:45:22;96786.63;;;11.11;76.49
15932;BME280;8065;49.520;11.284;2023-03-25T05:47:49;96790.63;;;11.05;76.54
15932;BME280;8065;49.520;11.284;2023-03-25T05:50:16;96794.38;;;11.16;76.87
15932;BME280;8065;49.520;11.284;2023-03-25T05:52:43;96796.81;;;11.09;75.98
15932;BME280;8065;49.520;11.284;2023-03-25T05:55:14;96796.81;;;11.09;76.14
15932;BME280;8065;49.520;11.284;2023-03-25T05:57:41;96800.69;;;11.11;75.48
15932;BME280;8065;49.520;11.284;2023-03-25T06:00:08;96797.06;;;11.04;75.63
15932;BME280;8065;49.520;11.284;2023-03-25T06:02:36;96804.22;;;11.15;75.96
15932;BME280;8065;49.520;11.284;2023-03-25T06:05:03;96808.88;;;11.19;75.51
15932;BME280;8065;49.520;11.284;2023-03-25T06:07:30;96817.28;;;11.21;75.90
15932;BME280;8065;49.520;11.284;2023-03-25T06:09:56;96814.53;;;11.17;76.05
15932;BME280;8065;49.520;11.284;2023-03-25T06:12:24;96814.56;;;11.05;76.34
15932;BME280;8065;49.520;11.284;2023-03-25T06:14:51;96818.09;;;11.09;76.17
15932;BME280;8065;49.520;11.284;2023-03-25T06:17:20;96823.06;;;11.10;75.40
15932;BME280;8065;49.520;11.284;2023-03-25T06:19:47;96824.31;;;11.01;75.89
15932;BME280;8065;49.520;11.284;2023-03-25T06:22:13;96821.47;;;10.94;75.72
15932;BME280;8065;49.520;11.284;2023-03-25T06:24:41;96831.66;;;10.92;76.03
15932;BME280;8065;49.520;11.284;2023-03-25T06:27:11;96814.03;;;10.99;75.02
15932;BME280;8065;49.520;11.284;2023-03-25T06:29:40;96825.19;;;11.05;75.95
15932;BME280;8065;49.520;11.284;2023-03-25T06:32:08;96825.00;;;10.98;76.04
15932;BME280;8065;49.520;11.284;2023-03-25T06:34:34;96815.91;;;10.99;76.27
15932;BME280;8065;49.520;11.284;2023-03-25T06:37:01;96816.69;;;10.99;76.09
15932;BME280;8065;49.520;11.284;2023-03-25T06:39:27;96811.50;;;10.91;75.68
15932;BME280;8065;49.520;11.284;2023-03-25T06:41:55;96815.25;;;10.90;75.99
15932;BME280;8065;49.520;11.284;2023-03-25T06:44:22;96807.13;;;11.10;75.81
15932;BME280;8065;49.520;11.284;2023-03-25T06:46:49;96823.22;;;11.02;75.76
15932;BME280;8065;49.520;11.284;2023-03-25T06:49:16;96813.91;;;10.96;75.30
15932;BME280;8065;49.520;11.284;2023-03-25T06:51:42;96814.66;;;11.08;75.18
15932;BME280;8065;49.520;11.284;2023-03-25T06:54:09;96810.31;;;11.16;75.49
15932;BME280;8065;49.520;11.284;2023-03-25T06:56:36;96818.53;;;11.11;75.01
15932;BME280;8065;49.520;11.284;2023-03-25T06:59:02;96809.84;;;11.26;75.13
15932;BME280;8065;49.520;11.284;2023-03-25T07:01:29;96801.03;;;11.10;75.88
15932;BME280;8065;49.520;11.284;2023-03-25T07:03:57;96804.25;;;11.31;74.92
15932;BME280;8065;49.520;11.284;2023-03-25T07:06:24;96816.69;;;11.27;74.16
15932;BME280;8065;49.520;11.284;2023-03-25T07:08:50;96811.56;;;11.34;74.02
15932;BME280;8065;49.520;11.284;2023-03-25T07:11:20;96819.97;;;11.36;73.18
15932;BME280;8065;49.520;11.284;2023-03-25T07:13:48;96811.94;;;11.48;73.22
15932;BME280;8065;49.520;11.284;2023-03-25T07:16:18;96812.63;;;11.45;72.97
15932;BME280;8065;49.520;11.284;2023-03-25T07:18:44;96814.06;;;11.43;72.83
15932;BME280;8065;49.520;11.284;2023-03-25T07:21:12;96823.06;;;11.38;73.30
15932;BME280;8065;49.520;11.284;2023-03-25T07:23:38;96831.72;;;11.35;72.67
15932;BME280;8065;49.520;11.284;2023-03-25T07:26:05;96829.94;;;11.39;72.27
15932;BME280;8065;49.520;11.284;2023-03-25T07:28:32;96840.88;;;11.50;71.85
15932;BME280;8065;49.520;11.284;2023-03-25T07:30:58;96829.75;;;11.60;71.57
15932;BME280;8065;49.520;11.284;2023-03-25T07:33:25;96830.03;;;11.71;71.88
15932;BME280;8065;49.520;11.284;2023-03-25T07:35:52;96836.22;;;11.75;71.35
15932;BME280;8065;49.520;11.284;2023-03-25T07:38:19;96831.13;;;11.82;71.96
15932;BME280;8065;49.520;11.284;2023-03-25T07:40:46;96828.69;;;11.77;71.85
15932;BME280;8065;49.520;11.284;2023-03-25T07:43:13;96836.53;;;11.86;71.53
15932;BME280;8065;49.520;11.284;2023-03-25T07:45:39;96833.81;;;11.70;71.38
15932;BME280;8065;49.520;11.284;2023-03-25T07:48:06;96822.19;;;11.90;71.54
15932;BME280;8065;49.520;11.284;2023-03-25T07:50:37;96845.13;;;11.67;71.66
15932;BME280;8065;49.520;11.284;2023-03-25T07:53:04;96846.22;;;11.78;71.83
15932;BME280;8065;49.520;11.284;2023-03-25T07:55:32;96847.75;;;11.79;71.61
15932;BME280;8065;49.520;11.284;2023-03-25T07:57:58;96850.88;;;11.69;71.47
15932;BME280;8065;49.520;11.284;2023-03-25T08:00:27;96846.94;;;11.91;71.45
15932;BME280;8065;49.520;11.284;2023-03-25T08:02:54;96845.72;;;11.88;70.85
15932;BME280;8065;49.520;11.284;2023-03-25T08:05:20;96854.63;;;11.80;71.58
15932;BME280;8065;49.520;11.284;2023-03-25T08:07:47;96836.72;;;11.93;71.05
15932;BME280;8065;49.520;11.284;2023-03-25T08:10:14;96848.66;;;12.14;70.57
15932;BME280;8065;49.520;11.284;2023-03-25T08:12:43;96846.25;;;12.09;70.88
15932;BME280;8065;49.520;11.284;2023-03-25T08:15:10;96843.41;;;12.18;70.47
15932;BME280;8065;49.520;11.284;2023-03-25T08:17:37;96838.88;;;12.03;70.90
15932;BME280;8065;49.520;11.284;2023-03-25T08:20:05;96849.78;;;12.29;70.52
15932;BME280;8065;49.520;11.284;2023-03-25T08:22:33;96841.34;;;11.96;70.27
15932;BME280;8065;49.520;11.284;2023-03-25T08:25:00;96845.47;;;12.25;69.94
15932;BME280;8065;49.520;11.284;2023-03-25T08:27:26;96829.50;;;12.09;70.73
15932;BME280;8065;49.520;11.284;2023-03-25T08:29:54;96848.31;;;12.32;70.32
15932;BME280;8065;49.520;11.284;2023-03-25T08:32:22;96838.53;;;12.04;69.89
15932;BME280;8065;49.520;11.284;2023-03-25T08:34:49;96851.41;;;12.02;69.93
15932;BME280;8065;49.520;11.284;2023-03-25T08:37:15;96845.22;;;12.30;68.83
15932;BME280;8065;49.520;11.284;2023-03-25T08:39:42;96846.84;;;12.34;68.54
15932;BME280;8065;49.520;11.284;2023-03-25T08:42:10;96850.13;;;12.43;68.34
15932;BME280;8065;49.520;11.284;2023-03-25T08:44:38;96850.53;;;12.61;67.73
15932;BME280;8065;49.520;11.284;2023-03-25T08:47:06;96856.34;;;12.83;66.05
15932;BME280;8065;49.520;11.284;2023-03-25T08:49:33;96821.19;;;13.31;65.24
15932;BME280;8065;49.520;11.284;2023-03-25T08:52:00;96842.59;;;13.35;64.77
15932;BME280;8065;49.520;11.284;2023-03-25T08:54:28;96830.44;;;13.18;64.31
15932;BME280;8065;49.520;11.284;2023-03-25T08:56:55;96818.03;;;13.26;64.08
15932;BME280;8065;49.520;11.284;2023-03-25T08:59:21;96830.03;;;13.35;64.54
15932;BME280;8065;49.520;11.284;2023-03-25T09:01:48;96831.44;;;13.29;64.38
15932;BME280;8065;49.520;11.284;2023-03-25T09:04:16;96828.78;;;13.49;64.13
15932;BME280;8065;49.520;11.284;2023-03-25T09:06:42;96815.72;;;13.43;63.92
15932;BME280;8065;49.520;11.284;2023-03-25T09:09:09;96813.88;;;13.48;63.06
15932;BME280;8065;49.520;11.284;2023-03-25T09:11:36;96825.53;;;13.59;63.41
15932;BME280;8065;49.520;11.284;2023-03-25T09:14:04;96823.72;;;13.24;63.89
15932;BME280;8065;49.520;11.284;2023-03-25T09:16:31;96832.34;;;13.37;63.16
15932;BME280;8065;49.520;11.284;2023-03-25T09:18:57;96831.47;;;13.13;63.43
15932;BME280;8065;49.520;11.284;2023-03-25T09:21:25;96820.97;;;13.21;62.85
15932;BME280;8065;49.520;11.284;2023-03-25T09:23:52;96801.63;;;13.66;63.19
15932;BME280;8065;49.520;11.284;2023-03-25T09:26:18;96799.88;;;14.42;61.64
15932;BME280;8065;49.520;11.284;2023-03-25T09:28:44;96818.38;;;14.54;61.36
15932;BME280;8065;49.520;11.284;2023-03-25T09:31:12;96796.38;;;15.24;59.87
15932;BME280;8065;49.520;11.284;2023-03-25T09:33:39;96815.44;;;15.19;58.29
15932;BME280;8065;49.520;11.284;2023-03-25T09:36:06;96795.91;;;14.89;57.78
15932;BME280;8065;49.520;11.284;2023-03-25T09:38:35;96801.06;;;14.74;57.65
15932;BME280;8065;49.520;11.284;2023-03-25T09:41:03;96794.78;;;14.37;57.66
15932;BME280;8065;49.520;11.284;2023-03-25T09:43:53;96803.53;;;14.34;58.33
15932;BME280;8065;49.520;11.284;2023-03-25T09:46:22;96789.63;;;14.25;59.51
15932;BME280;8065;49.520;11.284;2023-03-25T09:48:49;96791.66;;;14.08;59.28
15932;BME280;8065;49.520;11.284;2023-03-25T09:51:20;96797.84;;;13.90;59.62
15932;BME280;8065;49.520;11.284;2023-03-25T09:53:52;96811.88;;;13.83;60.32
15932;BME280;8065;49.520;11.284;2023-03-25T09:56:23;96798.50;;;14.06;60.02
15932;BME280;8065;49.520;11.284;2023-03-25T09:58:55;96793.91;;;14.06;60.51
15932;BME280;8065;49.520;11.284;2023-03-25T10:01:35;96807.66;;;13.82;59.81
15932;BME280;8065;49.520;11.284;2023-03-25T10:07:22;96788.97;;;14.54;59.16
15932;BME280;8065;49.520;11.284;2023-03-25T10:09:58;96808.16;;;14.37;59.25
15932;BME280;8065;49.520;11.284;2023-03-25T10:12:35;96793.59;;;14.34;59.33
15932;BME280;8065;49.520;11.284;2023-03-25T10:15:15;96789.16;;;14.42;58.68
15932;BME280;8065;49.520;11.284;2023-03-25T10:17:49;96788.22;;;14.84;57.93
15932;BME280;8065;49.520;11.284;2023-03-25T10:20:27;96774.06;;;14.53;58.40
15932;BME280;8065;49.520;11.284;2023-03-25T10:23:02;96778.34;;;14.35;58.15
15932;BME280;8065;49.520;11.284;2023-03-25T10:25:35;96786.41;;;14.61;57.86
15932;BME280;8065;49.520;11.284;2023-03-25T10:28:04;96772.72;;;14.66;58.02
15932;BME280;8065;49.520;11.284;2023-03-25T10:30:35;96771.34;;;14.80;57.28
15932;BME280;8065;49.520;11.284;2023-03-25T10:33:14;96763.03;;;14.88;58.18
15932;BME280;8065;49.520;11.284;2023-03-25T10:35:44;96776.22;;;14.44;56.38
15932;BME280;8065;49.520;11.284;2023-03-25T10:38:15;96763.41;;;14.57;56.75
15932;BME280;8065;49.520;11.284;2023-03-25T10:40:46;96744.53;;;14.72;56.82
15932;BME280;8065;49.520;11.284;2023-03-25T10:43:19;96752.06;;;14.63;57.50
15932;BME280;8065;49.520;11.284;2023-03-25T10:45:47;96748.47;;;14.52;57.46
15932;BME280;8065;49.520;11.284;2023-03-25T10:48:18;96757.34;;;14.60;57.86
15932;BME280;8065;49.520;11.284;2023-03-25T10:50:47;96751.31;;;14.40;60.28
15932;BME280;8065;49.520;11.284;2023-03-25T10:53:19;96754.47;;;14.23;61.59
15932;BME280;8065;49.520;11.284;2023-03-25T10:55:51;96766.31;;;13.99;63.77
15932;BME280;8065;49.520;11.284;2023-03-25T10:58:20;96763.28;;;14.00;64.81
15932;BME280;8065;49.520;11.284;2023-03-25T11:00:47;96762.34;;;13.89;67.30
15932;BME280;8065;49.520;11.284;2023-03-25T11:03:16;96754.03;;;13.94;67.45
15932;BME280;8065;49.520;11.284;2023-03-25T11:05:45;96752.28;;;13.79;69.02
15932;BME280;8065;49.520;11.284;2023-03-25T11:08:14;96747.97;;;13.52;69.02
15932;BME280;8065;49.520;11.284;2023-03-25T11:10:46;96732.53;;;14.10;68.04
15932;BME280;8065;49.520;11.284;2023-03-25T11:13:16;96743.88;;;14.03;68.42
15932;BME280;8065;49.520;11.284;2023-03-25T11:15:46;96739.34;;;13.81;68.68
15932;BME280;8065;49.520;11.284;2023-03-25T11:18:16;96741.06;;;13.70;69.48
15932;BME280;8065;49.520;11.284;2023-03-25T11:20:45;96733.28;;;13.84;69.68
15932;BME280;8065;49.520;11.284;2023-03-25T11:23:20;96725.56;;;13.79;70.54
15932;BME280;8065;49.520;11.284;2023-03-25T11:25:47;96728.38;;;13.86;70.26
15932;BME280;8065;49.520;11.284;2023-03-25T11:28:18;96754.81;;;13.72;71.62
15932;BME280;8065;49.520;11.284;2023-03-25T11:31:10;96795.59;;;12.92;72.92
15932;BME280;8065;49.520;11.284;2023-03-25T11:33:37;96810.41;;;12.38;76.26
15932;BME280;8065;49.520;11.284;2023-03-25T11:38:59;96844.66;;;11.77;79.29
15932;BME280;8065;49.520;11.284;2023-03-25T11:41:33;96865.84;;;11.05;79.54
15932;BME280;8065;49.520;11.284;2023-03-25T11:44:04;96833.34;;;11.24;79.48
15932;BME280;8065;49.520;11.284;2023-03-25T11:46:31;96803.81;;;11.29;80.03
15932;BME280;8065;49.520;11.284;2023-03-25T11:49:07;96800.13;;;11.62;80.99
15932;BME280;8065;49.520;11.284;2023-03-25T11:51:36;96791.47;;;12.08;78.85
15932;BME280;8065;49.520;11.284;2023-03-25T11:54:06;96793.06;;;12.29;79.26
15932;BME280;8065;49.520;11.284;2023-03-25T11:56:36;96771.03;;;12.83;77.73
15932;BME280;8065;49.520;11.284;2023-03-25T11:59:07;96762.59;;;12.80;76.05
15932;BME280;8065;49.520;11.284;2023-03-25T12:01:39;96747.03;;;13.21;76.63
15932;BME280;8065;49.520;11.284;2023-03-25T12:04:12;96745.28;;;13.71;75.72
15932;BME280;8065;49.520;11.284;2023-03-25T12:06:52;96756.06;;;13.78;77.23
15932;BME280;8065;49.520;11.284;2023-03-25T12:09:18;96755.16;;;13.93;76.08
15932;BME280;8065;49.520;11.284;2023-03-25T12:11:52;96741.63;;;14.05;74.57
15932;BME280;8065;49.520;11.284;2023-03-25T12:14:31;96743.91;;;13.81;74.52
15932;BME280;8065;49.520;11.284;2023-03-25T12:17:05;96746.22;;;13.59;73.64
15932;BME280;8065;49.520;11.284;2023-03-25T12:19:44;96743.47;;;13.56;74.92
15932;BME280;8065;49.520;11.284;2023-03-25T12:22:24;96748.09;;;14.04;74.36
15932;BME280;8065;49.520;11.284;2023-03-25T12:25:04;96734.81;;;14.34;74.94
15932;BME280;8065;49.520;11.284;2023-03-25T12:27:42;96730.00;;;14.73;73.18
15932;BME280;8065;49.520;11.284;2023-03-25T12:30:25;96713.41;;;14.91;73.89
15932;BME280;8065;49.520;11.284;2023-03-25T12:33:00;96700.31;;;14.82;71.79
15932;BME280;8065;49.520;11.284;2023-03-25T12:35:36;96700.63;;;14.77;71.76
15932;BME280;8065;49.520;11.284;2023-03-25T12:38:21;96679.50;;;14.65;71.02
15932;BME280;8065;49.520;11.284;2023-03-25T12:41:03;96681.72;;;14.59;70.99
15932;BME280;8065;49.520;11.284;2023-03-25T12:43:41;96683.06;;;14.46;70.27
15932;BME280;8065;49.520;11.284;2023-03-25T12:46:22;96676.91;;;14.42;69.74
15932;BME280;8065;49.520;11.284;2023-03-25T12:49:03;96692.34;;;14.29;69.15
15932;BME280;8065;49.520;11.284;2023-03-25T12:51:41;96689.00;;;14.36;69.61
15932;BME280;8065;49.520;11.284;2023-03-25T12:54:23;96675.00;;;14.16;68.50
15932;BME280;8065;49.520;11.284;2023-03-25T12:57:00;96678.13;;;14.48;69.37
15932;BME280;8065;49.520;11.284;2023-03-25T12:59:44;96685.41;;;14.51;68.66
15932;BME280;8065;49.520;11.284;2023-03-25T13:02:22;96691.19;;;14.53;68.16
15932;BME280;8065;49.520;11.284;2023-03-25T13:05:03;96683.06;;;14.46;68.10
15932;BME280;8065;49.520;11.284;2023-03-25T13:07:34;96670.66;;;14.34;67.51
15932;BME280;8065;49.520;11.284;2023-03-25T13:10:04;96670.72;;;14.38;67.70
15932;BME280;8065;49.520;11.284;2023-03-25T13:12:37;96665.97;;;14.54;67.33
15932;BME280;8065;49.520;11.284;2023-03-25T13:15:12;96652.06;;;14.71;67.11
15932;BME280;8065;49.520;11.284;2023-03-25T13:17:45;96657.06;;;14.76;66.72
15932;BME280;8065;49.520;11.284;2023-03-25T13:20:13;96651.94;;;14.61;66.72
15932;BME280;8065;49.520;11.284;2023-03-25T13:22:45;96660.31;;;14.59;68.10
15932;BME280;8065;49.520;11.284;2023-03-25T13:25:19;96673.69;;;14.33;68.98
15932;BME280;8065;49.520;11.284;2023-03-25T13:27:48;96672.06;;;14.51;69.51
15932;BME280;8065;49.520;11.284;2023-03-25T13:30:22;96699.09;;;14.46;70.02